Time;durP1;ratioP1;P1;durP2;ratioP2;P2;SDS_P1;SDS_P2;PMS_P1;PMS_P2;Temp;Humidity;BMP_temperature;BMP_pressure;BME280_temperature;BME280_humidity;BME280_pressure;Samples;Min_cycle;Max_cycle;Signal;HPM_P1;HPM_P2
2023/07/03 00:02:05;;;;;;;;;5.25;2.50;;;;;19.99;45.27;100761.00;5054941;28;45704;-86
2023/07/03 00:04:35;;;;;;;;;2.75;2.25;;;;;20.00;45.38;100772.50;5053498;28;48249;-86
2023/07/03 00:07:01;;;;;;;;;4.25;2.50;;;;;19.96;45.31;100763.19;5054322;28;46257;-87
2023/07/03 00:09:26;;;;;;;;;2.00;2.00;;;;;19.91;45.62;100758.38;5054896;28;45819;-88
2023/07/03 00:11:52;;;;;;;;;4.00;2.25;;;;;19.88;45.90;100771.97;5054613;28;45591;-86
2023/07/03 00:14:17;;;;;;;;;2.50;2.00;;;;;19.85;45.82;100764.34;5054438;28;45597;-89
2023/07/03 00:16:43;;;;;;;;;2.50;2.00;;;;;19.78;46.05;100744.72;5055167;28;46092;-88
2023/07/03 00:19:10;;;;;;;;;4.00;2.00;;;;;19.82;46.16;100755.84;5061306;28;45961;-85
2023/07/03 00:21:43;;;;;;;;;3.50;3.00;;;;;19.82;46.43;100758.50;5058825;28;45709;-85
2023/07/03 00:27:30;;;;;;;;;3.75;3.00;;;;;19.78;47.38;100743.88;5054005;28;45967;-87
2023/07/03 00:29:55;;;;;;;;;4.50;3.00;;;;;19.78;47.31;100742.06;5053921;28;45641;-86
2023/07/03 00:32:21;;;;;;;;;3.25;2.00;;;;;19.73;47.61;100747.03;5054113;28;45578;-88
2023/07/03 00:34:46;;;;;;;;;3.00;2.00;;;;;19.73;47.72;100739.06;5054664;28;45649;-86
2023/07/03 00:37:11;;;;;;;;;4.50;3.25;;;;;19.73;47.99;100732.91;5055795;28;45905;-87
2023/07/03 00:39:37;;;;;;;;;3.00;3.00;;;;;19.72;47.56;100740.06;5054867;28;45722;-87
2023/07/03 00:42:02;;;;;;;;;3.00;2.50;;;;;19.69;48.33;100735.91;5053605;28;45762;-87
2023/07/03 00:44:28;;;;;;;;;5.50;3.75;;;;;19.66;48.08;100724.75;5053286;28;45577;-88
2023/07/03 00:46:54;;;;;;;;;3.25;2.25;;;;;19.70;48.39;100734.09;5053355;28;46033;-88
2023/07/03 00:49:20;;;;;;;;;3.00;2.75;;;;;19.70;47.81;100734.09;5054392;28;45832;-85
2023/07/03 00:51:51;;;;;;;;;4.00;3.00;;;;;19.67;48.27;100721.94;5054242;28;45620;-87
2023/07/03 00:57:38;;;;;;;;;3.50;3.50;;;;;19.68;48.45;100736.06;5054079;28;46022;-84
2023/07/03 01:00:04;;;;;;;;;4.50;4.00;;;;;19.67;48.33;100735.22;5054593;28;45675;-86
2023/07/03 01:02:39;;;;;;;;;3.00;3.00;;;;;19.68;48.46;100728.09;5055041;28;45892;-87
2023/07/03 01:05:16;;;;;;;;;2.75;2.50;;;;;19.66;48.25;100732.72;5053638;28;46851;-87
2023/07/03 01:07:43;;;;;;;;;3.00;2.00;;;;;19.65;48.73;100720.44;5053100;28;46149;-87
2023/07/03 01:10:12;;;;;;;;;3.00;3.00;;;;;19.66;48.90;100719.44;5051609;28;45740;-86
2023/07/03 01:12:41;;;;;;;;;3.00;3.00;;;;;19.70;48.63;100731.44;5053314;28;45695;-87
2023/07/03 01:15:10;;;;;;;;;3.50;2.50;;;;;19.71;48.50;100727.75;5052755;28;46385;-87
2023/07/03 01:17:40;;;;;;;;;3.00;3.00;;;;;19.73;48.96;100730.25;5053321;28;45979;-88
2023/07/03 01:20:09;;;;;;;;;4.25;4.25;;;;;19.70;49.03;100720.78;5053371;28;45708;-86
2023/07/03 01:22:41;;;;;;;;;4.25;3.75;;;;;19.72;49.23;100725.94;5054825;28;45646;-88
2023/07/03 01:25:12;;;;;;;;;5.00;4.00;;;;;19.70;48.89;100726.13;5053893;28;46578;-86
2023/07/03 01:27:43;;;;;;;;;3.25;3.25;;;;;19.66;49.03;100728.25;5071075;28;47381;-86
2023/07/03 01:30:14;;;;;;;;;5.00;4.00;;;;;19.66;49.49;100725.59;5052644;28;45894;-87
2023/07/03 01:32:42;;;;;;;;;4.00;3.00;;;;;19.66;49.84;100722.09;5052476;28;46029;-83
2023/07/03 01:35:09;;;;;;;;;5.00;3.75;;;;;19.64;49.54;100719.63;5051869;28;46834;-86
2023/07/03 01:37:39;;;;;;;;;4.75;3.75;;;;;19.63;49.53;100714.47;5051986;28;45845;-86
2023/07/03 01:40:08;;;;;;;;;4.00;3.00;;;;;19.64;49.88;100724.09;5051915;28;45549;-87
2023/07/03 01:42:36;;;;;;;;;4.25;3.00;;;;;19.63;49.91;100717.13;5052031;28;45989;-84
2023/07/03 01:45:01;;;;;;;;;4.00;2.00;;;;;19.62;49.85;100724.25;5052033;28;45750;-86
2023/07/03 01:47:27;;;;;;;;;6.00;4.00;;;;;19.60;49.92;100712.94;5052180;28;45936;-87
2023/07/03 01:49:52;;;;;;;;;3.00;2.50;;;;;19.60;50.24;100733.38;5052717;28;45637;-86
2023/07/03 01:59:08;;;;;;;;;4.25;3.25;;;;;19.49;51.13;100725.72;5055143;28;45719;-85
2023/07/03 02:01:52;;;;;;;;;4.00;3.50;;;;;19.47;51.46;100719.75;5054631;28;45902;-87
2023/07/03 02:04:29;;;;;;;;;4.00;4.00;;;;;19.47;51.31;100725.91;5056375;28;45590;-86
2023/07/03 02:06:57;;;;;;;;;3.25;3.00;;;;;19.49;51.01;100723.06;5056149;28;45550;-87
2023/07/03 02:09:23;;;;;;;;;5.75;4.50;;;;;19.49;51.66;100720.41;5054649;28;47520;-86
2023/07/03 02:11:52;;;;;;;;;5.25;3.50;;;;;19.46;51.57;100726.91;5056387;28;46219;-85
2023/07/03 02:14:17;;;;;;;;;3.25;3.00;;;;;19.45;51.79;100724.41;5072739;28;45755;-86
2023/07/03 02:16:46;;;;;;;;;6.50;3.50;;;;;19.41;51.67;100717.72;5056114;28;46277;-87
2023/07/03 02:19:14;;;;;;;;;5.00;4.00;;;;;19.38;51.62;100713.53;5057008;28;45978;-85
2023/07/03 02:21:39;;;;;;;;;5.25;4.00;;;;;19.39;51.83;100720.53;5056313;28;45774;-85
2023/07/03 02:24:05;;;;;;;;;4.50;4.00;;;;;19.38;52.30;100713.53;5054690;28;45990;-86
2023/07/03 02:26:31;;;;;;;;;3.25;3.00;;;;;19.36;51.80;100706.75;5055448;28;46330;-85
2023/07/03 02:28:56;;;;;;;;;4.75;3.75;;;;;19.39;52.33;100714.38;5056092;28;45739;-86
2023/07/03 02:31:21;;;;;;;;;4.00;4.00;;;;;19.36;52.14;100696.97;5055414;28;45677;-83
2023/07/03 02:33:47;;;;;;;;;3.50;3.50;;;;;19.41;52.42;100689.31;5055587;28;45727;-86
2023/07/03 02:36:12;;;;;;;;;3.75;3.75;;;;;19.42;52.12;100680.38;5053433;28;48744;-85
2023/07/03 02:38:37;;;;;;;;;4.50;4.00;;;;;19.49;51.92;100692.00;5055511;28;46440;-84
2023/07/03 02:41:03;;;;;;;;;6.00;5.00;;;;;19.53;51.68;100695.19;5053225;28;45993;-86
2023/07/03 02:43:30;;;;;;;;;4.00;3.00;;;;;19.55;51.93;100691.34;5055446;28;45721;-87
2023/07/03 02:46:02;;;;;;;;;5.25;4.00;;;;;19.56;52.38;100702.81;5054461;28;45862;-86
2023/07/03 02:48:28;;;;;;;;;4.50;3.25;;;;;19.54;51.78;100694.19;5054813;28;45833;-84
2023/07/03 02:50:53;;;;;;;;;4.25;4.00;;;;;19.56;52.18;100706.31;5054580;28;45737;-84
2023/07/03 02:53:19;;;;;;;;;7.00;4.00;;;;;19.56;52.46;100710.78;5070134;28;45799;-84
2023/07/03 02:55:44;;;;;;;;;6.25;5.00;;;;;19.56;51.72;100701.00;5053371;28;47418;-85
2023/07/03 02:58:09;;;;;;;;;3.00;3.00;;;;;19.55;52.24;100711.78;5054787;28;45713;-83
2023/07/03 03:00:35;;;;;;;;;5.00;4.00;;;;;19.55;52.50;100714.44;5052841;28;45869;-85
2023/07/03 03:03:00;;;;;;;;;7.25;5.00;;;;;19.53;51.93;100705.81;5055363;28;45659;-84
2023/07/03 03:05:26;;;;;;;;;5.00;4.00;;;;;19.52;52.54;100697.00;5056240;28;45661;-84
2023/07/03 03:07:51;;;;;;;;;3.25;3.25;;;;;19.53;52.39;100714.63;5056769;28;45717;-86
2023/07/03 03:13:38;;;;;;;;;4.00;3.25;;;;;19.49;52.68;100707.13;5055006;28;45693;-85
2023/07/03 03:16:04;;;;;;;;;5.00;4.25;;;;;19.45;52.60;100701.31;5054472;28;45659;-86
2023/07/03 03:18:29;;;;;;;;;5.50;4.00;;;;;19.43;52.59;100700.63;5053415;28;46314;-85
2023/07/03 03:20:54;;;;;;;;;4.50;4.50;;;;;19.44;52.64;100690.81;5056242;28;45725;-87
2023/07/03 03:23:20;;;;;;;;;7.50;6.00;;;;;19.39;52.84;100693.13;5055514;28;45720;-86
2023/07/03 03:25:46;;;;;;;;;10.00;8.00;;;;;19.41;52.92;100702.59;5053966;28;46448;-83
2023/07/03 03:28:11;;;;;;;;;6.00;5.00;;;;;19.37;53.21;100690.66;5054315;28;47219;-85
2023/07/03 03:30:38;;;;;;;;;8.75;6.00;;;;;19.35;53.23;100702.44;5052751;28;46187;-85
2023/07/03 03:33:03;;;;;;;;;8.00;5.50;;;;;19.32;53.67;100713.41;5054406;28;45713;-86
2023/07/03 03:35:29;;;;;;;;;5.25;4.75;;;;;19.31;53.51;100698.44;5054780;28;45742;-86
2023/07/03 03:37:54;;;;;;;;;5.50;4.50;;;;;19.28;53.45;100692.44;5055337;28;45845;-86
2023/07/03 03:44:09;;;;;;;;;5.75;5.75;;;;;19.29;54.06;100691.47;5049244;28;46061;-86
2023/07/03 03:46:34;;;;;;;;;8.25;5.50;;;;;19.29;54.13;100702.09;5054932;28;46470;-86
2023/07/03 03:49:01;;;;;;;;;9.00;7.00;;;;;19.29;54.41;100695.94;5054963;28;46524;-85
2023/07/03 03:51:26;;;;;;;;;6.00;6.00;;;;;19.32;54.24;100687.66;5055200;28;45709;-85
2023/07/03 03:53:52;;;;;;;;;7.00;6.25;;;;;19.32;54.17;100694.78;5055571;28;45661;-84
2023/07/03 03:56:19;;;;;;;;;7.75;4.75;;;;;19.35;54.03;100691.78;5055531;28;45666;-86
2023/07/03 03:58:45;;;;;;;;;8.00;8.00;;;;;19.35;54.65;100692.63;5055521;28;46120;-83
2023/07/03 04:01:10;;;;;;;;;6.50;5.75;;;;;19.35;54.52;100684.66;5055600;28;45649;-86
2023/07/03 04:03:36;;;;;;;;;5.75;5.00;;;;;19.34;54.43;100695.44;5054655;28;45676;-88
2023/07/03 04:06:01;;;;;;;;;6.00;5.00;;;;;19.31;54.68;100701.09;5053842;28;46394;-83
2023/07/03 04:08:27;;;;;;;;;6.50;6.00;;;;;19.24;55.04;100696.44;5054311;28;45681;-86
2023/07/03 04:14:15;;;;;;;;;7.25;5.25;;;;;19.31;54.72;100696.63;5053770;28;45720;-86
2023/07/03 04:16:40;;;;;;;;;7.50;6.25;;;;;19.35;54.77;100686.47;5054376;28;45866;-84
2023/07/03 04:19:06;;;;;;;;;4.75;4.25;;;;;19.35;54.95;100691.78;5054209;28;45788;-86
2023/07/03 04:21:31;;;;;;;;;6.50;6.00;;;;;19.43;54.92;100699.78;5054294;28;45857;-84
2023/07/03 04:23:57;;;;;;;;;5.50;5.00;;;;;19.45;54.80;100703.13;5053568;28;45806;-86
2023/07/03 04:26:22;;;;;;;;;5.75;5.25;;;;;19.49;54.91;100701.81;5053048;28;47551;-85
2023/07/03 04:28:48;;;;;;;;;6.00;5.00;;;;;19.48;54.81;100702.81;5056039;28;45616;-84
2023/07/03 04:31:13;;;;;;;;;7.00;5.00;;;;;19.47;55.07;100695.84;5055502;28;45670;-85
2023/07/03 04:33:39;;;;;;;;;5.50;5.00;;;;;19.46;55.12;100708.28;5058247;28;45806;-85
2023/07/03 04:36:05;;;;;;;;;6.25;5.00;;;;;19.45;54.94;100701.31;5054567;28;45446;-86
2023/07/03 04:38:31;;;;;;;;;8.00;5.00;;;;;19.43;55.27;100692.66;5052772;28;47353;-85
2023/07/03 04:44:18;;;;;;;;;7.25;6.00;;;;;19.48;55.27;100694.84;5048841;28;45712;-86
2023/07/03 04:46:43;;;;;;;;;4.75;4.50;;;;;19.51;55.52;100692.69;5056499;28;46118;-85
2023/07/03 04:49:10;;;;;;;;;6.25;6.00;;;;;19.49;55.22;100692.00;5056765;28;45653;-87
2023/07/03 04:51:36;;;;;;;;;8.00;5.00;;;;;19.49;54.88;100692.00;5056150;28;45845;-85
2023/07/03 04:54:03;;;;;;;;;5.00;5.00;;;;;19.50;55.20;100695.50;5055772;28;45614;-85
2023/07/03 04:56:32;;;;;;;;;4.00;4.00;;;;;19.53;55.30;100692.53;5055891;28;45666;-87
2023/07/03 04:58:57;;;;;;;;;6.00;4.75;;;;;19.56;55.39;100692.19;5056932;28;45618;-90
2023/07/03 05:01:24;;;;;;;;;7.75;6.00;;;;;19.56;55.07;100692.19;5056321;28;45741;-85
2023/07/03 05:03:49;;;;;;;;;7.75;6.75;;;;;19.56;55.60;100687.69;5055525;28;45744;-85
2023/07/03 05:06:15;;;;;;;;;7.75;6.75;;;;;19.63;54.90;100695.84;5053985;28;48341;-86
2023/07/03 05:08:40;;;;;;;;;3.75;3.00;;;;;19.63;55.52;100690.53;5056147;28;45594;-87
2023/07/03 05:14:27;;;;;;;;;6.25;5.25;;;;;19.64;55.62;100701.03;5053711;28;45701;-87
2023/07/03 05:16:52;;;;;;;;;5.00;5.00;;;;;19.63;55.40;100691.38;5051837;28;48785;-89
2023/07/03 05:19:18;;;;;;;;;5.25;5.25;;;;;19.62;55.40;100700.34;5054644;28;45696;-86
2023/07/03 05:21:43;;;;;;;;;6.00;5.25;;;;;19.61;55.48;100698.66;5056541;28;46088;-86
2023/07/03 05:24:08;;;;;;;;;5.25;5.00;;;;;19.57;55.65;100699.16;5058497;28;45865;-86
2023/07/03 05:26:34;;;;;;;;;6.00;5.25;;;;;19.56;55.70;100708.13;5058661;28;45955;-85
2023/07/03 05:28:59;;;;;;;;;6.00;5.25;;;;;19.52;55.48;100706.81;5058141;28;45631;-87
2023/07/03 05:31:24;;;;;;;;;5.50;5.00;;;;;19.49;55.94;100704.47;5058427;28;45615;-85
2023/07/03 05:33:50;;;;;;;;;7.50;5.75;;;;;19.47;55.96;100703.81;5059618;28;45764;-88
2023/07/03 05:36:16;;;;;;;;;5.00;4.75;;;;;19.46;55.62;100692.34;5059645;28;45555;-85
2023/07/03 05:38:42;;;;;;;;;6.50;5.75;;;;;19.47;55.74;100688.69;5059580;28;45650;-87
2023/07/03 05:44:29;;;;;;;;;5.50;5.00;;;;;19.54;55.67;100687.03;5056938;28;45778;-86
2023/07/03 05:46:54;;;;;;;;;5.50;5.50;;;;;19.57;55.58;100688.53;5057670;28;48965;-88
2023/07/03 05:49:20;;;;;;;;;6.25;5.00;;;;;19.62;55.68;100688.88;5058045;28;45701;-86
2023/07/03 05:51:45;;;;;;;;;6.00;5.25;;;;;19.63;55.46;100687.88;5056756;28;45684;-84
2023/07/03 05:54:10;;;;;;;;;5.25;5.00;;;;;19.69;55.38;100690.72;5056656;28;45705;-87
2023/07/03 05:59:59;;;;;;;;;7.00;4.25;;;;;19.79;54.58;100698.53;5056058;28;46153;-85
2023/07/03 06:02:24;;;;;;;;;5.25;5.00;;;;;19.82;54.52;100698.19;5056068;28;45696;-84
2023/07/03 06:04:51;;;;;;;;;4.00;3.00;;;;;19.85;54.60;100697.03;5056073;28;45809;-85
2023/07/03 06:07:16;;;;;;;;;5.00;4.50;;;;;19.86;54.34;100694.22;5056077;28;45841;-84
2023/07/03 06:09:42;;;;;;;;;5.25;5.25;;;;;19.90;53.80;100695.53;5056831;28;45563;-86
2023/07/03 06:12:08;;;;;;;;;6.00;4.25;;;;;19.94;54.16;100710.16;5056297;28;45511;-83
2023/07/03 06:14:33;;;;;;;;;5.00;3.75;;;;;19.96;54.05;100705.50;5070854;28;45712;-82
2023/07/03 06:17:00;;;;;;;;;4.75;4.50;;;;;19.97;53.98;100709.00;5055726;28;45682;-87
2023/07/03 06:19:26;;;;;;;;;5.00;4.00;;;;;19.98;53.79;100711.47;5055718;28;46030;-85
2023/07/03 06:21:52;;;;;;;;;6.75;5.00;;;;;20.00;54.01;100717.47;5056233;28;45682;-85
2023/07/03 06:24:18;;;;;;;;;4.50;4.50;;;;;20.03;53.77;100709.13;5054145;28;45883;-86
2023/07/03 06:30:06;;;;;;;;;1.75;1.75;;;;;20.12;53.04;100702.00;5054829;28;45870;-86
2023/07/03 06:32:31;;;;;;;;;5.25;5.00;;;;;20.13;53.44;100701.81;5056197;28;45716;-86
2023/07/03 06:34:57;;;;;;;;;4.00;3.00;;;;;20.15;53.35;100704.31;5056142;28;45793;-84
2023/07/03 06:37:22;;;;;;;;;4.00;4.00;;;;;20.18;53.33;100704.00;5055855;28;45530;-86
2023/07/03 06:39:47;;;;;;;;;5.00;4.75;;;;;20.21;53.27;100714.28;5055801;28;46293;-85
2023/07/03 06:42:13;;;;;;;;;5.00;4.00;;;;;20.22;53.25;100699.97;5056598;28;45575;-82
2023/07/03 06:44:40;;;;;;;;;4.00;3.00;;;;;20.24;53.15;100705.97;5056399;28;45797;-86
2023/07/03 06:47:06;;;;;;;;;4.00;4.00;;;;;20.24;52.76;100703.31;5056818;28;45664;-84
2023/07/03 06:49:32;;;;;;;;;5.00;3.75;;;;;20.27;52.85;100702.97;5057065;28;45596;-83
2023/07/03 06:51:58;;;;;;;;;5.75;5.00;;;;;20.29;52.88;100702.81;5072489;28;45766;-83
2023/07/03 06:54:23;;;;;;;;;6.00;5.75;;;;;20.26;52.99;100690.66;5056313;28;45794;-84
2023/07/03 07:00:11;;;;;;;;;4.75;4.00;;;;;20.30;53.03;100707.09;5056990;28;45798;-84
2023/07/03 07:02:36;;;;;;;;;4.75;4.00;;;;;20.31;52.72;100704.31;5055486;28;45473;-83
2023/07/03 07:05:02;;;;;;;;;8.00;6.75;;;;;20.33;52.79;100710.31;5055518;28;45729;-83
2023/07/03 07:07:28;;;;;;;;;7.25;5.00;;;;;20.30;52.63;100705.28;5055580;28;45533;-83
2023/07/03 07:09:53;;;;;;;;;4.50;3.00;;;;;20.34;53.05;100700.50;5056064;28;46364;-85
2023/07/03 07:15:41;;;;;;;;;4.25;4.00;;;;;20.40;53.12;100718.44;5055887;28;45576;-85
2023/07/03 07:18:08;;;;;;;;;5.75;5.50;;;;;20.43;52.85;100724.25;5054893;28;45770;-83
2023/07/03 07:20:37;;;;;;;;;6.00;5.00;;;;;20.42;52.58;100717.25;5054536;28;46028;-84
2023/07/03 07:23:03;;;;;;;;;4.00;2.75;;;;;20.41;52.88;100718.25;5056706;28;45661;-84
2023/07/03 07:25:28;;;;;;;;;4.00;3.25;;;;;20.42;52.65;100711.09;5054805;28;45854;-85
2023/07/03 07:27:53;;;;;;;;;4.00;3.75;;;;;20.41;52.34;100712.94;5055246;28;45601;-85
2023/07/03 07:30:19;;;;;;;;;6.00;5.00;;;;;20.41;52.13;100722.75;5055760;28;45787;-84
2023/07/03 07:32:46;;;;;;;;;4.50;4.00;;;;;20.46;52.65;100707.94;5055146;28;45616;-86
2023/07/03 07:35:13;;;;;;;;;3.00;3.00;;;;;20.52;52.59;100717.06;5054659;28;45468;-83
2023/07/03 07:37:38;;;;;;;;;4.50;4.00;;;;;20.53;52.62;100710.75;5053008;28;48662;-85
2023/07/03 07:40:04;;;;;;;;;5.00;3.50;;;;;20.59;52.67;100719.88;5054465;28;45614;-85
2023/07/03 07:45:52;;;;;;;;;3.00;3.00;;;;;20.71;52.12;100727.34;5043213;28;45954;-80
2023/07/03 07:48:17;;;;;;;;;5.50;5.50;;;;;20.72;52.26;100722.84;5054567;28;45755;-87
2023/07/03 07:50:43;;;;;;;;;4.00;3.25;;;;;20.69;52.18;100720.50;5054703;28;46530;-86
2023/07/03 07:53:08;;;;;;;;;8.50;4.00;;;;;20.69;52.32;100725.84;5054691;28;45816;-87
2023/07/03 07:55:36;;;;;;;;;4.00;4.00;;;;;20.70;52.50;100724.84;5054182;28;45554;-86
2023/07/03 07:58:01;;;;;;;;;4.00;4.00;;;;;20.75;52.50;100725.16;5054232;28;45757;-87
2023/07/03 08:00:27;;;;;;;;;5.25;4.25;;;;;20.79;52.27;100734.44;5053815;28;45890;-88
2023/07/03 08:02:52;;;;;;;;;5.00;4.25;;;;;20.81;52.39;100716.47;5054149;28;46187;-86
2023/07/03 08:05:18;;;;;;;;;5.00;4.00;;;;;20.86;52.46;100728.28;5054395;28;45706;-85
2023/07/03 08:07:44;;;;;;;;;6.00;3.50;;;;;20.90;52.08;100726.91;5054274;28;45688;-87
2023/07/03 08:10:10;;;;;;;;;3.75;3.75;;;;;20.93;51.81;100725.75;5054021;28;45622;-84
2023/07/03 08:15:57;;;;;;;;;6.75;5.75;;;;;20.95;51.32;100737.88;5053497;28;45613;-85
2023/07/03 08:18:23;;;;;;;;;4.00;4.00;;;;;20.92;51.04;100732.09;5054280;28;45631;-87
2023/07/03 08:20:50;;;;;;;;;4.75;4.75;;;;;20.91;51.19;100719.75;5052712;28;47042;-86
2023/07/03 08:23:15;;;;;;;;;6.00;4.25;;;;;20.95;50.87;100729.06;5054103;28;45695;-84
2023/07/03 08:25:41;;;;;;;;;6.00;5.00;;;;;20.94;50.76;100722.91;5053608;28;45475;-86
2023/07/03 08:28:08;;;;;;;;;5.75;5.50;;;;;20.94;51.02;100716.78;5053788;28;46804;-85
2023/07/03 08:30:33;;;;;;;;;4.50;4.00;;;;;21.00;50.53;100728.56;5053654;28;46109;-84
2023/07/03 08:32:59;;;;;;;;;4.25;4.00;;;;;20.99;50.41;100727.75;5053714;28;45544;-87
2023/07/03 08:35:24;;;;;;;;;5.25;4.50;;;;;20.98;50.03;100723.41;5053781;28;45798;-86
2023/07/03 08:37:50;;;;;;;;;5.50;3.75;;;;;20.97;50.28;100721.75;5052489;28;46702;-85
2023/07/03 08:40:18;;;;;;;;;3.75;3.75;;;;;21.01;50.40;100730.19;5054065;28;45928;-84
2023/07/03 08:46:10;;;;;;;;;5.50;5.50;;;;;21.07;50.01;100726.84;5051666;28;45765;-85
2023/07/03 08:48:38;;;;;;;;;4.00;4.00;;;;;21.05;49.71;100729.72;5055858;28;46531;-87
2023/07/03 08:51:07;;;;;;;;;4.75;3.50;;;;;21.03;50.04;100722.88;5053156;28;46628;-84
2023/07/03 08:53:39;;;;;;;;;5.00;4.25;;;;;20.99;50.17;100722.41;5054952;28;45714;-86
2023/07/03 08:56:17;;;;;;;;;5.00;4.50;;;;;21.01;50.13;100731.03;5054428;28;45800;-86
2023/07/03 08:58:49;;;;;;;;;6.25;5.00;;;;;21.01;49.87;100733.69;5052946;28;45700;-85
2023/07/03 09:01:39;;;;;;;;;4.75;4.00;;;;;20.99;50.41;100737.56;5053103;28;45701;-85
2023/07/03 09:04:23;;;;;;;;;4.00;3.00;;;;;20.94;50.51;100733.56;5052900;28;45714;-86
2023/07/03 09:06:54;;;;;;;;;5.00;5.00;;;;;20.91;50.63;100741.91;5052108;28;45966;-85
2023/07/03 09:09:28;;;;;;;;;5.75;4.75;;;;;20.87;50.79;100742.44;5069547;28;47347;-87
2023/07/03 09:12:15;;;;;;;;;6.00;4.25;;;;;20.84;50.53;100756.06;5062103;28;46629;-87
2023/07/03 09:14:49;;;;;;;;;5.75;5.25;;;;;20.81;50.72;100743.13;5063485;28;45640;-87
2023/07/03 09:17:15;;;;;;;;;4.75;4.00;;;;;20.76;51.11;100753.44;5055713;28;45677;-87
2023/07/03 09:19:46;;;;;;;;;6.00;5.00;;;;;20.76;50.89;100742.81;5054026;28;46334;-86
2023/07/03 09:22:33;;;;;;;;;5.00;4.00;;;;;20.75;50.98;100746.47;5054179;28;45980;-86
2023/07/03 09:25:07;;;;;;;;;5.75;5.75;;;;;20.70;51.01;100736.31;5055012;28;45624;-85
2023/07/03 09:27:33;;;;;;;;;7.00;6.00;;;;;20.70;51.23;100746.16;5051863;28;45930;-84
2023/07/03 09:30:04;;;;;;;;;5.25;4.75;;;;;20.71;51.43;100748.66;5052450;28;46288;-86
2023/07/03 09:32:32;;;;;;;;;5.75;5.50;;;;;20.75;51.49;100743.78;5053264;28;46064;-86
2023/07/03 09:35:00;;;;;;;;;5.50;4.25;;;;;20.77;51.26;100733.81;5051900;28;45753;-86
2023/07/03 09:37:27;;;;;;;;;4.50;4.00;;;;;20.79;51.47;100732.63;5051321;28;45688;-85
2023/07/03 09:39:52;;;;;;;;;5.00;4.75;;;;;20.77;51.10;100721.34;5053075;28;45863;-87
2023/07/03 09:42:17;;;;;;;;;6.75;5.00;;;;;20.84;50.90;100729.44;5053513;28;46061;-86
2023/07/03 09:44:43;;;;;;;;;4.00;3.00;;;;;20.90;51.38;100726.91;5054477;28;45861;-87
2023/07/03 09:47:26;;;;;;;;;4.50;4.00;;;;;20.95;50.94;100727.22;5054542;28;45999;-85
2023/07/03 09:49:52;;;;;;;;;5.25;3.50;;;;;21.08;50.59;100753.31;5054406;28;46575;-85
2023/07/03 09:52:18;;;;;;;;;5.50;4.25;;;;;21.15;50.52;100732.19;5053695;28;46335;-85
2023/07/03 09:54:46;;;;;;;;;3.50;2.50;;;;;21.22;50.24;100725.13;5053662;28;45714;-84
2023/07/03 09:57:38;;;;;;;;;4.00;4.00;;;;;21.28;50.05;100737.75;5051318;28;46095;-86
2023/07/03 10:00:14;;;;;;;;;6.50;4.25;;;;;21.32;49.85;100741.75;5065310;28;47668;-86
2023/07/03 10:02:39;;;;;;;;;5.00;3.50;;;;;21.40;49.74;100732.88;5052014;28;46050;-84
2023/07/03 10:05:05;;;;;;;;;4.00;3.50;;;;;21.43;49.51;100735.19;5068010;28;45868;-82
2023/07/03 10:07:39;;;;;;;;;4.50;4.00;;;;;21.51;49.91;100745.78;5053353;28;45771;-86
2023/07/03 10:10:10;;;;;;;;;4.50;3.75;;;;;21.57;49.40;100747.75;5051687;28;47313;-86
2023/07/03 10:12:43;;;;;;;;;5.00;5.00;;;;;21.58;49.41;100758.25;5056197;28;45995;-85
2023/07/03 10:15:21;;;;;;;;;3.25;3.25;;;;;21.62;49.31;100778.22;5056334;28;45686;-84
2023/07/03 10:18:08;;;;;;;;;2.50;2.00;;;;;21.59;49.16;100759.91;5056636;28;45609;-85
2023/07/03 10:20:41;;;;;;;;;3.50;3.25;;;;;21.57;48.87;100759.25;5056145;28;46417;-85
2023/07/03 10:23:10;;;;;;;;;8.25;5.00;;;;;21.58;48.76;100757.44;5055646;28;46258;-88
2023/07/03 10:25:41;;;;;;;;;3.75;3.75;;;;;21.56;49.17;100754.94;5053592;28;45978;-84
2023/07/03 10:28:12;;;;;;;;;5.00;4.50;;;;;21.62;48.94;100756.91;5055229;28;45702;-86
2023/07/03 10:30:39;;;;;;;;;4.00;2.50;;;;;21.68;48.72;100766.84;5055414;28;45740;-83
2023/07/03 10:33:20;;;;;;;;;2.25;2.25;;;;;21.71;48.54;100760.31;5055596;28;46207;-87
2023/07/03 10:35:49;;;;;;;;;5.00;3.00;;;;;21.70;48.22;100754.16;5055020;28;45708;-83
2023/07/03 10:38:20;;;;;;;;;3.25;2.50;;;;;21.77;48.46;100749.78;5055683;28;45826;-84
2023/07/03 10:41:07;;;;;;;;;2.75;2.75;;;;;21.87;48.18;100740.69;5055911;28;46490;-84
2023/07/03 10:43:39;;;;;;;;;2.50;2.50;;;;;21.96;48.02;100764.53;5055554;28;45852;-85
2023/07/03 10:46:07;;;;;;;;;2.25;2.25;;;;;22.01;46.71;100758.66;5056826;28;45894;-85
2023/07/03 10:48:34;;;;;;;;;3.75;3.50;;;;;22.01;47.37;100778.16;5056342;28;45639;-86
2023/07/03 10:51:05;;;;;;;;;5.00;3.25;;;;;22.00;47.05;100752.47;5055476;28;46195;-86
2023/07/03 10:53:41;;;;;;;;;4.00;3.00;;;;;21.94;46.39;100747.00;5070256;28;46143;-87
2023/07/03 10:56:35;;;;;;;;;6.25;4.00;;;;;21.95;45.96;100757.53;5053390;28;46116;-85
2023/07/03 10:59:17;;;;;;;;;5.00;4.00;;;;;21.95;46.10;100754.84;5032361;28;45826;-86
2023/07/03 11:02:02;;;;;;;;;3.00;3.00;;;;;21.99;45.40;100755.31;5033281;28;45896;-87
2023/07/03 11:04:39;;;;;;;;;4.50;2.75;;;;;21.97;44.70;100760.03;5033036;28;45971;-86
2023/07/03 11:07:23;;;;;;;;;4.75;2.75;;;;;21.97;43.74;100752.00;5033162;28;45751;-87
2023/07/03 11:10:10;;;;;;;;;2.50;2.00;;;;;21.91;43.61;100748.19;5033546;28;45728;-85
2023/07/03 11:16:14;;;;;;;;;4.00;3.50;;;;;21.86;42.57;100739.06;5032509;28;46090;-87
2023/07/03 11:19:23;;;;;;;;;2.75;2.00;;;;;21.89;41.69;100728.84;5032872;28;45892;-86
2023/07/03 11:22:15;;;;;;;;;4.50;3.00;;;;;21.93;41.31;100727.47;4973209;28;45713;-86
2023/07/03 11:25:03;;;;;;;;;3.25;3.25;;;;;21.96;40.67;100739.69;4956200;28;47623;-87
2023/07/03 11:27:56;;;;;;;;;3.00;3.00;;;;;22.01;41.00;100743.47;4973237;28;46719;-87
2023/07/03 11:30:25;;;;;;;;;4.00;4.00;;;;;22.02;40.56;100730.97;4973953;28;45744;-85
2023/07/03 11:32:52;;;;;;;;;4.00;3.00;;;;;22.06;40.95;100721.56;4974201;28;45910;-87
2023/07/03 11:35:18;;;;;;;;;3.50;3.00;;;;;22.09;40.30;100729.19;4981994;28;45745;-88
2023/07/03 11:37:48;;;;;;;;;3.50;2.25;;;;;22.12;39.75;100729.69;4997842;28;46807;-87
2023/07/03 11:40:35;;;;;;;;;1.50;1.50;;;;;22.14;39.15;100742.84;5014018;28;45835;-88
2023/07/03 11:43:34;;;;;;;;;2.00;1.75;;;;;22.14;38.37;100741.00;5012817;28;45655;-88
2023/07/03 11:45:59;;;;;;;;;2.50;2.00;;;;;22.15;38.46;100737.31;5013171;28;46521;-86
2023/07/03 11:48:33;;;;;;;;;2.75;1.25;;;;;22.15;36.54;100744.50;4996298;28;46557;-88
2023/07/03 11:51:02;;;;;;;;;1.25;1.00;;;;;22.17;37.74;100747.84;5012814;28;45637;-87
2023/07/03 11:53:36;;;;;;;;;3.00;1.00;;;;;22.18;37.52;100753.00;5014438;28;45662;-86
2023/07/03 11:56:04;;;;;;;;;2.00;1.00;;;;;22.17;37.32;100734.47;5040571;28;47406;-88
2023/07/03 11:58:35;;;;;;;;;2.00;1.25;;;;;22.18;36.83;100736.16;5054427;28;46056;-86
2023/07/03 12:01:22;;;;;;;;;2.00;1.00;;;;;22.22;36.42;100733.94;5052849;28;45935;-89
2023/07/03 12:03:53;;;;;;;;;1.00;1.00;;;;;22.25;36.75;100737.06;5055469;28;45844;-87
2023/07/03 12:06:42;;;;;;;;;2.00;1.00;;;;;22.26;36.83;100749.41;5055715;28;45586;-88
2023/07/03 12:09:30;;;;;;;;;2.50;1.00;;;;;22.28;35.92;100754.56;5054909;28;46457;-90
2023/07/03 12:12:18;;;;;;;;;1.00;1.00;;;;;22.25;35.93;100774.44;5055701;28;45561;-85
2023/07/03 12:14:53;;;;;;;;;2.00;1.00;;;;;22.26;35.98;100744.06;5053429;28;45881;-87
2023/07/03 12:17:21;;;;;;;;;4.75;2.00;;;;;22.24;36.21;100770.09;5054724;28;45667;-85
2023/07/03 12:19:48;;;;;;;;;2.50;2.50;;;;;22.31;36.39;100754.19;5054351;28;46094;-86
2023/07/03 12:22:15;;;;;;;;;2.50;2.00;;;;;22.33;35.49;100747.69;5053659;28;45612;-89
2023/07/03 12:24:41;;;;;;;;;0.50;0.50;;;;;22.36;35.51;100779.34;5052586;28;45710;-85
2023/07/03 12:27:08;;;;;;;;;2.00;2.00;;;;;22.36;34.73;100752.63;5052663;28;46485;-86
2023/07/03 12:29:44;;;;;;;;;3.25;2.00;;;;;22.40;35.97;100756.59;5051783;28;45912;-90
2023/07/03 12:32:09;;;;;;;;;4.75;4.00;;;;;22.42;35.35;100778.63;5052469;28;46012;-85
2023/07/03 12:34:40;;;;;;;;;8.25;7.50;;;;;22.47;35.78;100752.19;5051551;28;45918;-86